sensor_id;sensor_type;location;lat;lon;timestamp;P1;durP1;ratioP1;P2;durP2;ratioP2
80400;SDS011;69727;53.132;8.230;2023-06-05T00:00:51;7.63;;;2.95;;
80400;SDS011;69727;53.132;8.230;2023-06-05T00:03:17;6.30;;;2.40;;
80400;SDS011;69727;53.132;8.230;2023-06-05T00:05:43;7.97;;;3.58;;
80400;SDS011;69727;53.132;8.230;2023-06-05T00:08:08;6.22;;;2.95;;
80400;SDS011;69727;53.132;8.230;2023-06-05T00:10:33;6.00;;;3.00;;
80400;SDS011;69727;53.132;8.230;2023-06-05T00:12:59;10.25;;;3.35;;
80400;SDS011;69727;53.132;8.230;2023-06-05T00:15:25;5.80;;;2.95;;
80400;SDS011;69727;53.132;8.230;2023-06-05T00:17:50;8.75;;;2.90;;
80400;SDS011;69727;53.132;8.230;2023-06-05T00:20:16;7.10;;;3.10;;
80400;SDS011;69727;53.132;8.230;2023-06-05T00:22:42;7.22;;;3.33;;
80400;SDS011;69727;53.132;8.230;2023-06-05T00:25:09;8.18;;;3.20;;
80400;SDS011;69727;53.132;8.230;2023-06-05T00:27:35;6.47;;;2.90;;
80400;SDS011;69727;53.132;8.230;2023-06-05T00:30:01;10.07;;;2.90;;
80400;SDS011;69727;53.132;8.230;2023-06-05T00:32:26;7.82;;;2.88;;
80400;SDS011;69727;53.132;8.230;2023-06-05T00:34:52;8.93;;;2.88;;
80400;SDS011;69727;53.132;8.230;2023-06-05T00:37:17;8.68;;;3.28;;
80400;SDS011;69727;53.132;8.230;2023-06-05T00:39:44;10.23;;;3.40;;
80400;SDS011;69727;53.132;8.230;2023-06-05T00:42:09;12.88;;;4.65;;
80400;SDS011;69727;53.132;8.230;2023-06-05T00:44:35;6.50;;;2.92;;
80400;SDS011;69727;53.132;8.230;2023-06-05T00:47:00;10.52;;;3.40;;
80400;SDS011;69727;53.132;8.230;2023-06-05T00:49:28;7.13;;;3.70;;
80400;SDS011;69727;53.132;8.230;2023-06-05T00:51:54;7.95;;;2.50;;
80400;SDS011;69727;53.132;8.230;2023-06-05T00:54:19;8.10;;;2.97;;
80400;SDS011;69727;53.132;8.230;2023-06-05T00:56:46;8.45;;;3.80;;
80400;SDS011;69727;53.132;8.230;2023-06-05T00:59:11;8.85;;;3.53;;
80400;SDS011;69727;53.132;8.230;2023-06-05T01:01:39;9.68;;;3.65;;
80400;SDS011;69727;53.132;8.230;2023-06-05T01:04:05;8.98;;;3.95;;
80400;SDS011;69727;53.132;8.230;2023-06-05T01:06:31;9.25;;;3.65;;
80400;SDS011;69727;53.132;8.230;2023-06-05T01:08:59;7.35;;;3.72;;
80400;SDS011;69727;53.132;8.230;2023-06-05T01:11:38;9.45;;;4.03;;
80400;SDS011;69727;53.132;8.230;2023-06-05T01:14:24;7.78;;;3.90;;
80400;SDS011;69727;53.132;8.230;2023-06-05T01:16:53;9.10;;;3.67;;
80400;SDS011;69727;53.132;8.230;2023-06-05T01:19:23;10.40;;;3.97;;
80400;SDS011;69727;53.132;8.230;2023-06-05T01:21:56;9.73;;;3.75;;
80400;SDS011;69727;53.132;8.230;2023-06-05T01:29:32;8.30;;;3.88;;
80400;SDS011;69727;53.132;8.230;2023-06-05T01:32:06;7.97;;;3.90;;
80400;SDS011;69727;53.132;8.230;2023-06-05T01:34:37;8.48;;;3.97;;
80400;SDS011;69727;53.132;8.230;2023-06-05T01:37:08;10.05;;;4.13;;
80400;SDS011;69727;53.132;8.230;2023-06-05T01:42:03;9.48;;;4.20;;
80400;SDS011;69727;53.132;8.230;2023-06-05T01:44:29;10.70;;;3.92;;
80400;SDS011;69727;53.132;8.230;2023-06-05T01:46:55;11.40;;;5.20;;
80400;SDS011;69727;53.132;8.230;2023-06-05T01:49:20;11.18;;;4.47;;
80400;SDS011;69727;53.132;8.230;2023-06-05T01:51:46;8.05;;;4.30;;
80400;SDS011;69727;53.132;8.230;2023-06-05T01:54:12;11.93;;;4.57;;
80400;SDS011;69727;53.132;8.230;2023-06-05T01:56:37;8.83;;;3.63;;
80400;SDS011;69727;53.132;8.230;2023-06-05T01:59:04;10.88;;;4.78;;
80400;SDS011;69727;53.132;8.230;2023-06-05T02:01:32;8.13;;;3.88;;
80400;SDS011;69727;53.132;8.230;2023-06-05T02:03:57;9.95;;;4.78;;
80400;SDS011;69727;53.132;8.230;2023-06-05T02:06:23;10.57;;;5.10;;
80400;SDS011;69727;53.132;8.230;2023-06-05T02:08:50;12.25;;;5.45;;
80400;SDS011;69727;53.132;8.230;2023-06-05T02:11:15;11.48;;;4.95;;
80400;SDS011;69727;53.132;8.230;2023-06-05T02:13:40;11.35;;;4.75;;
80400;SDS011;69727;53.132;8.230;2023-06-05T02:16:09;12.57;;;5.10;;
80400;SDS011;69727;53.132;8.230;2023-06-05T02:18:35;11.63;;;5.53;;
80400;SDS011;69727;53.132;8.230;2023-06-05T02:21:03;16.20;;;5.57;;
80400;SDS011;69727;53.132;8.230;2023-06-05T02:23:29;15.52;;;5.75;;
80400;SDS011;69727;53.132;8.230;2023-06-05T02:25:55;10.85;;;5.20;;
80400;SDS011;69727;53.132;8.230;2023-06-05T02:28:20;14.13;;;5.28;;
80400;SDS011;69727;53.132;8.230;2023-06-05T02:30:46;11.52;;;5.40;;
80400;SDS011;69727;53.132;8.230;2023-06-05T02:33:13;13.20;;;5.30;;
80400;SDS011;69727;53.132;8.230;2023-06-05T02:35:39;14.52;;;5.38;;
80400;SDS011;69727;53.132;8.230;2023-06-05T02:38:07;12.73;;;5.18;;
80400;SDS011;69727;53.132;8.230;2023-06-05T02:40:33;12.27;;;5.55;;
80400;SDS011;69727;53.132;8.230;2023-06-05T02:42:58;11.00;;;5.10;;
80400;SDS011;69727;53.132;8.230;2023-06-05T02:45:23;14.23;;;5.13;;
80400;SDS011;69727;53.132;8.230;2023-06-05T02:47:49;13.63;;;5.65;;
80400;SDS011;69727;53.132;8.230;2023-06-05T02:50:14;12.55;;;5.03;;
80400;SDS011;69727;53.132;8.230;2023-06-05T02:52:40;11.43;;;4.97;;
80400;SDS011;69727;53.132;8.230;2023-06-05T02:55:05;12.48;;;5.30;;
80400;SDS011;69727;53.132;8.230;2023-06-05T02:57:32;14.98;;;5.50;;
80400;SDS011;69727;53.132;8.230;2023-06-05T03:00:07;14.90;;;6.88;;
80400;SDS011;69727;53.132;8.230;2023-06-05T03:02:33;14.13;;;6.13;;
80400;SDS011;69727;53.132;8.230;2023-06-05T03:05:02;15.68;;;6.38;;
80400;SDS011;69727;53.132;8.230;2023-06-05T03:07:28;12.65;;;5.43;;
80400;SDS011;69727;53.132;8.230;2023-06-05T03:09:54;13.65;;;6.07;;
80400;SDS011;69727;53.132;8.230;2023-06-05T03:12:20;16.58;;;7.13;;
80400;SDS011;69727;53.132;8.230;2023-06-05T03:14:45;13.55;;;6.47;;
80400;SDS011;69727;53.132;8.230;2023-06-05T03:17:11;17.73;;;6.40;;
80400;SDS011;69727;53.132;8.230;2023-06-05T03:19:36;15.23;;;5.37;;
80400;SDS011;69727;53.132;8.230;2023-06-05T03:22:02;13.47;;;5.97;;
80400;SDS011;69727;53.132;8.230;2023-06-05T03:24:27;17.48;;;5.95;;
80400;SDS011;69727;53.132;8.230;2023-06-05T03:26:53;14.77;;;5.72;;
80400;SDS011;69727;53.132;8.230;2023-06-05T03:29:18;12.13;;;5.63;;
80400;SDS011;69727;53.132;8.230;2023-06-05T03:31:43;13.07;;;5.50;;
80400;SDS011;69727;53.132;8.230;2023-06-05T03:34:09;14.40;;;5.93;;
80400;SDS011;69727;53.132;8.230;2023-06-05T03:36:34;12.82;;;5.38;;
80400;SDS011;69727;53.132;8.230;2023-06-05T03:39:02;10.90;;;5.65;;
80400;SDS011;69727;53.132;8.230;2023-06-05T03:41:28;12.43;;;5.57;;
80400;SDS011;69727;53.132;8.230;2023-06-05T03:43:53;13.85;;;5.55;;
80400;SDS011;69727;53.132;8.230;2023-06-05T03:46:19;13.80;;;5.97;;
80400;SDS011;69727;53.132;8.230;2023-06-05T03:48:45;15.13;;;6.88;;
80400;SDS011;69727;53.132;8.230;2023-06-05T03:51:11;17.77;;;7.60;;
80400;SDS011;69727;53.132;8.230;2023-06-05T03:53:37;14.40;;;6.18;;
80400;SDS011;69727;53.132;8.230;2023-06-05T03:56:05;15.35;;;6.95;;
80400;SDS011;69727;53.132;8.230;2023-06-05T03:58:31;14.70;;;6.10;;
80400;SDS011;69727;53.132;8.230;2023-06-05T04:00:56;13.13;;;5.67;;
80400;SDS011;69727;53.132;8.230;2023-06-05T04:03:22;12.80;;;5.30;;
80400;SDS011;69727;53.132;8.230;2023-06-05T04:05:48;15.25;;;6.32;;
80400;SDS011;69727;53.132;8.230;2023-06-05T04:08:13;14.10;;;6.17;;
80400;SDS011;69727;53.132;8.230;2023-06-05T04:10:39;14.75;;;6.22;;
80400;SDS011;69727;53.132;8.230;2023-06-05T04:13:05;13.15;;;6.50;;
80400;SDS011;69727;53.132;8.230;2023-06-05T04:15:31;13.77;;;5.90;;
80400;SDS011;69727;53.132;8.230;2023-06-05T04:17:58;13.98;;;5.80;;
80400;SDS011;69727;53.132;8.230;2023-06-05T04:20:23;16.23;;;6.70;;
80400;SDS011;69727;53.132;8.230;2023-06-05T04:22:49;10.82;;;5.60;;
80400;SDS011;69727;53.132;8.230;2023-06-05T04:25:15;16.70;;;7.38;;
80400;SDS011;69727;53.132;8.230;2023-06-05T04:27:42;16.10;;;5.88;;
80400;SDS011;69727;53.132;8.230;2023-06-05T04:30:10;12.18;;;5.35;;
80400;SDS011;69727;53.132;8.230;2023-06-05T04:32:39;11.85;;;5.18;;
80400;SDS011;69727;53.132;8.230;2023-06-05T04:35:06;13.50;;;5.68;;
80400;SDS011;69727;53.132;8.230;2023-06-05T04:37:33;13.07;;;5.55;;
80400;SDS011;69727;53.132;8.230;2023-06-05T04:40:03;11.73;;;5.40;;
80400;SDS011;69727;53.132;8.230;2023-06-05T04:42:35;14.45;;;5.55;;
80400;SDS011;69727;53.132;8.230;2023-06-05T04:45:05;11.65;;;5.57;;
80400;SDS011;69727;53.132;8.230;2023-06-05T04:47:34;10.18;;;4.88;;
80400;SDS011;69727;53.132;8.230;2023-06-05T04:50:01;12.15;;;4.95;;
80400;SDS011;69727;53.132;8.230;2023-06-05T04:52:31;10.73;;;4.80;;
80400;SDS011;69727;53.132;8.230;2023-06-05T04:54:58;9.65;;;4.63;;
80400;SDS011;69727;53.132;8.230;2023-06-05T04:57:25;9.95;;;5.32;;
80400;SDS011;69727;53.132;8.230;2023-06-05T04:59:52;10.95;;;4.80;;
80400;SDS011;69727;53.132;8.230;2023-06-05T05:02:18;11.82;;;4.57;;
80400;SDS011;69727;53.132;8.230;2023-06-05T05:04:43;9.23;;;4.55;;
80400;SDS011;69727;53.132;8.230;2023-06-05T05:07:08;9.53;;;4.57;;
80400;SDS011;69727;53.132;8.230;2023-06-05T05:09:40;12.75;;;4.65;;
80400;SDS011;69727;53.132;8.230;2023-06-05T05:12:06;8.90;;;3.95;;
80400;SDS011;69727;53.132;8.230;2023-06-05T05:14:32;10.32;;;4.10;;
80400;SDS011;69727;53.132;8.230;2023-06-05T05:16:58;8.88;;;4.38;;
80400;SDS011;69727;53.132;8.230;2023-06-05T05:19:23;8.90;;;4.10;;
80400;SDS011;69727;53.132;8.230;2023-06-05T05:21:48;12.77;;;3.80;;
80400;SDS011;69727;53.132;8.230;2023-06-05T05:24:14;9.95;;;4.05;;
80400;SDS011;69727;53.132;8.230;2023-06-05T05:26:39;10.57;;;3.85;;
80400;SDS011;69727;53.132;8.230;2023-06-05T05:29:05;11.80;;;4.82;;
80400;SDS011;69727;53.132;8.230;2023-06-05T05:31:31;9.68;;;4.18;;
80400;SDS011;69727;53.132;8.230;2023-06-05T05:33:57;8.10;;;3.67;;
80400;SDS011;69727;53.132;8.230;2023-06-05T05:36:23;7.78;;;4.03;;
80400;SDS011;69727;53.132;8.230;2023-06-05T05:41:17;9.38;;;3.60;;
80400;SDS011;69727;53.132;8.230;2023-06-05T05:43:43;8.57;;;3.95;;
80400;SDS011;69727;53.132;8.230;2023-06-05T05:46:08;7.10;;;3.73;;
80400;SDS011;69727;53.132;8.230;2023-06-05T05:48:37;10.03;;;3.70;;
80400;SDS011;69727;53.132;8.230;2023-06-05T05:51:03;8.95;;;3.70;;
80400;SDS011;69727;53.132;8.230;2023-06-05T05:53:29;7.65;;;3.70;;
80400;SDS011;69727;53.132;8.230;2023-06-05T05:55:54;7.20;;;3.80;;
80400;SDS011;69727;53.132;8.230;2023-06-05T05:58:20;8.83;;;4.87;;
80400;SDS011;69727;53.132;8.230;2023-06-05T06:00:45;8.48;;;3.65;;
80400;SDS011;69727;53.132;8.230;2023-06-05T06:03:12;8.02;;;3.78;;
80400;SDS011;69727;53.132;8.230;2023-06-05T06:05:38;11.00;;;3.88;;
80400;SDS011;69727;53.132;8.230;2023-06-05T06:08:04;8.43;;;3.33;;
80400;SDS011;69727;53.132;8.230;2023-06-05T06:10:30;6.18;;;3.30;;
80400;SDS011;69727;53.132;8.230;2023-06-05T06:12:56;8.60;;;3.92;;
80400;SDS011;69727;53.132;8.230;2023-06-05T06:15:21;8.32;;;4.13;;
80400;SDS011;69727;53.132;8.230;2023-06-05T06:17:47;7.85;;;3.72;;
80400;SDS011;69727;53.132;8.230;2023-06-05T06:20:13;8.00;;;3.95;;
80400;SDS011;69727;53.132;8.230;2023-06-05T06:22:38;7.95;;;4.03;;
80400;SDS011;69727;53.132;8.230;2023-06-05T06:25:05;8.40;;;3.40;;
80400;SDS011;69727;53.132;8.230;2023-06-05T06:27:31;8.70;;;3.90;;
80400;SDS011;69727;53.132;8.230;2023-06-05T06:29:57;9.90;;;4.28;;
80400;SDS011;69727;53.132;8.230;2023-06-05T06:32:23;9.57;;;3.80;;
80400;SDS011;69727;53.132;8.230;2023-06-05T06:34:51;8.40;;;3.65;;
80400;SDS011;69727;53.132;8.230;2023-06-05T06:37:19;9.80;;;3.95;;
80400;SDS011;69727;53.132;8.230;2023-06-05T06:39:45;7.97;;;3.65;;
80400;SDS011;69727;53.132;8.230;2023-06-05T06:42:11;6.80;;;3.22;;
80400;SDS011;69727;53.132;8.230;2023-06-05T06:44:37;9.68;;;4.03;;
80400;SDS011;69727;53.132;8.230;2023-06-05T06:47:04;5.80;;;3.17;;
80400;SDS011;69727;53.132;8.230;2023-06-05T06:49:30;7.15;;;3.63;;
80400;SDS011;69727;53.132;8.230;2023-06-05T06:51:55;8.35;;;3.75;;
80400;SDS011;69727;53.132;8.230;2023-06-05T06:54:21;9.75;;;3.70;;
80400;SDS011;69727;53.132;8.230;2023-06-05T06:56:47;8.32;;;4.40;;
80400;SDS011;69727;53.132;8.230;2023-06-05T06:59:14;10.55;;;4.30;;
80400;SDS011;69727;53.132;8.230;2023-06-05T07:01:42;8.32;;;4.22;;
80400;SDS011;69727;53.132;8.230;2023-06-05T07:04:11;7.97;;;5.00;;
80400;SDS011;69727;53.132;8.230;2023-06-05T07:06:45;10.75;;;4.38;;
80400;SDS011;69727;53.132;8.230;2023-06-05T07:09:11;9.13;;;4.53;;
80400;SDS011;69727;53.132;8.230;2023-06-05T07:11:37;8.73;;;4.13;;
80400;SDS011;69727;53.132;8.230;2023-06-05T07:14:03;8.43;;;3.85;;
80400;SDS011;69727;53.132;8.230;2023-06-05T07:16:28;7.47;;;3.85;;
80400;SDS011;69727;53.132;8.230;2023-06-05T07:18:54;8.63;;;4.28;;
80400;SDS011;69727;53.132;8.230;2023-06-05T07:21:20;7.82;;;4.18;;
80400;SDS011;69727;53.132;8.230;2023-06-05T07:23:50;7.22;;;3.97;;
80400;SDS011;69727;53.132;8.230;2023-06-05T07:26:19;8.50;;;4.50;;
80400;SDS011;69727;53.132;8.230;2023-06-05T07:28:45;10.18;;;4.70;;
80400;SDS011;69727;53.132;8.230;2023-06-05T07:31:12;11.70;;;4.22;;
80400;SDS011;69727;53.132;8.230;2023-06-05T07:33:38;6.97;;;4.50;;
80400;SDS011;69727;53.132;8.230;2023-06-05T07:36:03;8.98;;;4.25;;
80400;SDS011;69727;53.132;8.230;2023-06-05T07:38:29;9.43;;;4.97;;
80400;SDS011;69727;53.132;8.230;2023-06-05T07:40:55;10.05;;;5.25;;
80400;SDS011;69727;53.132;8.230;2023-06-05T07:43:23;10.75;;;4.75;;
80400;SDS011;69727;53.132;8.230;2023-06-05T07:45:49;11.30;;;5.72;;
80400;SDS011;69727;53.132;8.230;2023-06-05T07:48:14;10.48;;;5.57;;
80400;SDS011;69727;53.132;8.230;2023-06-05T07:50:40;12.40;;;6.22;;
80400;SDS011;69727;53.132;8.230;2023-06-05T07:53:05;8.30;;;5.45;;
80400;SDS011;69727;53.132;8.230;2023-06-05T07:55:31;10.00;;;6.10;;
80400;SDS011;69727;53.132;8.230;2023-06-05T07:58:14;8.85;;;5.70;;
80400;SDS011;69727;53.132;8.230;2023-06-05T08:00:42;10.73;;;6.00;;
80400;SDS011;69727;53.132;8.230;2023-06-05T08:03:08;10.20;;;5.95;;
80400;SDS011;69727;53.132;8.230;2023-06-05T08:05:33;8.70;;;5.13;;
80400;SDS011;69727;53.132;8.230;2023-06-05T08:08:30;9.60;;;5.82;;
80400;SDS011;69727;53.132;8.230;2023-06-05T08:10:56;7.65;;;5.47;;
80400;SDS011;69727;53.132;8.230;2023-06-05T08:13:21;9.05;;;4.72;;
80400;SDS011;69727;53.132;8.230;2023-06-05T08:15:47;11.38;;;5.13;;
80400;SDS011;69727;53.132;8.230;2023-06-05T08:18:12;8.50;;;4.50;;
80400;SDS011;69727;53.132;8.230;2023-06-05T08:20:40;8.55;;;4.90;;
80400;SDS011;69727;53.132;8.230;2023-06-05T08:23:05;9.47;;;4.40;;
80400;SDS011;69727;53.132;8.230;2023-06-05T08:25:30;8.77;;;4.70;;
80400;SDS011;69727;53.132;8.230;2023-06-05T08:27:56;9.38;;;3.92;;
80400;SDS011;69727;53.132;8.230;2023-06-05T08:30:21;11.23;;;4.73;;
80400;SDS011;69727;53.132;8.230;2023-06-05T08:33:10;7.65;;;4.35;;
80400;SDS011;69727;53.132;8.230;2023-06-05T08:36:05;10.15;;;4.53;;
80400;SDS011;69727;53.132;8.230;2023-06-05T08:39:24;9.10;;;4.13;;
80400;SDS011;69727;53.132;8.230;2023-06-05T08:41:54;7.00;;;4.10;;
80400;SDS011;69727;53.132;8.230;2023-06-05T08:44:25;7.97;;;3.92;;
80400;SDS011;69727;53.132;8.230;2023-06-05T08:46:51;5.90;;;3.38;;
80400;SDS011;69727;53.132;8.230;2023-06-05T08:49:19;6.90;;;3.92;;
80400;SDS011;69727;53.132;8.230;2023-06-05T08:51:50;9.23;;;4.13;;
80400;SDS011;69727;53.132;8.230;2023-06-05T08:54:21;8.48;;;4.10;;
80400;SDS011;69727;53.132;8.230;2023-06-05T08:56:46;8.63;;;3.83;;
80400;SDS011;69727;53.132;8.230;2023-06-05T08:59:13;6.10;;;3.58;;
80400;SDS011;69727;53.132;8.230;2023-06-05T09:01:40;9.75;;;3.95;;
80400;SDS011;69727;53.132;8.230;2023-06-05T09:04:05;8.55;;;3.75;;
80400;SDS011;69727;53.132;8.230;2023-06-05T09:06:31;8.55;;;3.65;;
80400;SDS011;69727;53.132;8.230;2023-06-05T09:09:08;8.93;;;3.50;;
80400;SDS011;69727;53.132;8.230;2023-06-05T09:11:35;7.15;;;3.50;;
80400;SDS011;69727;53.132;8.230;2023-06-05T09:14:01;7.10;;;3.45;;
80400;SDS011;69727;53.132;8.230;2023-06-05T09:19:00;7.88;;;3.53;;
80400;SDS011;69727;53.132;8.230;2023-06-05T09:21:27;8.07;;;3.60;;
80400;SDS011;69727;53.132;8.230;2023-06-05T09:24:38;8.45;;;3.28;;
80400;SDS011;69727;53.132;8.230;2023-06-05T09:29:12;8.25;;;3.50;;
80400;SDS011;69727;53.132;8.230;2023-06-05T09:31:41;6.93;;;3.80;;
80400;SDS011;69727;53.132;8.230;2023-06-05T09:34:07;7.85;;;3.45;;
80400;SDS011;69727;53.132;8.230;2023-06-05T09:36:32;6.63;;;3.50;;
80400;SDS011;69727;53.132;8.230;2023-06-05T09:39:13;6.50;;;3.53;;
80400;SDS011;69727;53.132;8.230;2023-06-05T09:41:43;5.95;;;3.10;;
80400;SDS011;69727;53.132;8.230;2023-06-05T09:44:10;6.55;;;3.20;;
80400;SDS011;69727;53.132;8.230;2023-06-05T09:49:24;8.20;;;3.47;;
80400;SDS011;69727;53.132;8.230;2023-06-05T09:51:51;11.10;;;4.53;;
80400;SDS011;69727;53.132;8.230;2023-06-05T09:54:17;7.43;;;4.07;;
80400;SDS011;69727;53.132;8.230;2023-06-05T09:56:48;9.18;;;5.20;;
80400;SDS011;69727;53.132;8.230;2023-06-05T09:59:16;5.55;;;3.20;;
80400;SDS011;69727;53.132;8.230;2023-06-05T10:01:50;7.38;;;3.88;;
80400;SDS011;69727;53.132;8.230;2023-06-05T10:04:22;7.55;;;3.00;;
80400;SDS011;69727;53.132;8.230;2023-06-05T10:06:49;5.40;;;3.00;;
80400;SDS011;69727;53.132;8.230;2023-06-05T10:09:16;7.00;;;3.10;;
80400;SDS011;69727;53.132;8.230;2023-06-05T10:11:43;6.63;;;2.80;;
80400;SDS011;69727;53.132;8.230;2023-06-05T10:14:12;6.22;;;3.08;;
80400;SDS011;69727;53.132;8.230;2023-06-05T10:16:39;7.05;;;3.15;;
80400;SDS011;69727;53.132;8.230;2023-06-05T10:19:05;7.13;;;3.47;;
80400;SDS011;69727;53.132;8.230;2023-06-05T10:21:31;7.78;;;3.50;;
80400;SDS011;69727;53.132;8.230;2023-06-05T10:23:58;7.45;;;3.20;;
80400;SDS011;69727;53.132;8.230;2023-06-05T10:26:48;6.43;;;2.83;;
80400;SDS011;69727;53.132;8.230;2023-06-05T10:40:42;7.55;;;4.40;;
80400;SDS011;69727;53.132;8.230;2023-06-05T10:46:01;11.10;;;4.88;;
80400;SDS011;69727;53.132;8.230;2023-06-05T10:54:04;7.68;;;2.85;;
80400;SDS011;69727;53.132;8.230;2023-06-05T10:59:16;5.78;;;2.78;;
80400;SDS011;69727;53.132;8.230;2023-06-05T11:01:42;9.15;;;2.83;;
80400;SDS011;69727;53.132;8.230;2023-06-05T11:04:08;7.38;;;2.95;;
80400;SDS011;69727;53.132;8.230;2023-06-05T11:06:34;6.53;;;3.03;;
80400;SDS011;69727;53.132;8.230;2023-06-05T11:14:42;6.13;;;2.60;;
80400;SDS011;69727;53.132;8.230;2023-06-05T11:19:52;6.28;;;2.90;;
80400;SDS011;69727;53.132;8.230;2023-06-05T11:22:18;6.20;;;3.30;;
80400;SDS011;69727;53.132;8.230;2023-06-05T11:24:43;6.03;;;3.33;;
80400;SDS011;69727;53.132;8.230;2023-06-05T11:27:39;5.57;;;2.80;;
80400;SDS011;69727;53.132;8.230;2023-06-05T11:30:18;6.90;;;2.85;;
80400;SDS011;69727;53.132;8.230;2023-06-05T11:32:45;8.07;;;3.38;;
80400;SDS011;69727;53.132;8.230;2023-06-05T11:35:11;7.95;;;3.63;;
80400;SDS011;69727;53.132;8.230;2023-06-05T11:37:37;7.93;;;3.33;;
80400;SDS011;69727;53.132;8.230;2023-06-05T11:40:05;7.80;;;3.38;;
80400;SDS011;69727;53.132;8.230;2023-06-05T11:42:43;7.93;;;3.25;;
80400;SDS011;69727;53.132;8.230;2023-06-05T11:47:37;6.57;;;3.53;;
80400;SDS011;69727;53.132;8.230;2023-06-05T11:50:07;7.82;;;3.65;;
80400;SDS011;69727;53.132;8.230;2023-06-05T11:52:40;6.13;;;3.50;;
80400;SDS011;69727;53.132;8.230;2023-06-05T11:55:12;6.65;;;3.47;;
80400;SDS011;69727;53.132;8.230;2023-06-05T11:57:45;6.20;;;3.30;;
80400;SDS011;69727;53.132;8.230;2023-06-05T12:00:22;6.97;;;3.85;;
80400;SDS011;69727;53.132;8.230;2023-06-05T12:02:49;8.18;;;3.00;;
80400;SDS011;69727;53.132;8.230;2023-06-05T12:05:14;8.65;;;4.22;;
80400;SDS011;69727;53.132;8.230;2023-06-05T12:07:40;5.75;;;3.30;;
80400;SDS011;69727;53.132;8.230;2023-06-05T12:10:07;6.95;;;4.00;;
80400;SDS011;69727;53.132;8.230;2023-06-05T12:12:33;7.18;;;3.30;;
80400;SDS011;69727;53.132;8.230;2023-06-05T12:15:21;6.97;;;3.35;;
80400;SDS011;69727;53.132;8.230;2023-06-05T12:17:49;9.63;;;3.55;;
80400;SDS011;69727;53.132;8.230;2023-06-05T12:20:19;5.82;;;3.35;;
80400;SDS011;69727;53.132;8.230;2023-06-05T12:22:45;7.38;;;3.38;;
80400;SDS011;69727;53.132;8.230;2023-06-05T12:25:15;6.68;;;3.30;;
80400;SDS011;69727;53.132;8.230;2023-06-05T12:27:47;5.53;;;3.20;;
80400;SDS011;69727;53.132;8.230;2023-06-05T12:30:13;7.50;;;4.00;;
80400;SDS011;69727;53.132;8.230;2023-06-05T12:32:41;6.38;;;3.85;;
80400;SDS011;69727;53.132;8.230;2023-06-05T12:35:19;6.45;;;3.20;;
80400;SDS011;69727;53.132;8.230;2023-06-05T12:37:48;6.93;;;3.72;;
80400;SDS011;69727;53.132;8.230;2023-06-05T12:40:15;6.88;;;3.83;;
80400;SDS011;69727;53.132;8.230;2023-06-05T12:42:46;7.93;;;3.53;;
80400;SDS011;69727;53.132;8.230;2023-06-05T12:45:13;7.95;;;4.15;;
80400;SDS011;69727;53.132;8.230;2023-06-05T12:47:38;6.93;;;4.00;;
80400;SDS011;69727;53.132;8.230;2023-06-05T12:50:05;7.97;;;4.38;;
80400;SDS011;69727;53.132;8.230;2023-06-05T12:52:32;9.32;;;4.45;;
80400;SDS011;69727;53.132;8.230;2023-06-05T12:54:58;7.90;;;3.55;;
80400;SDS011;69727;53.132;8.230;2023-06-05T12:57:23;5.90;;;3.30;;
80400;SDS011;69727;53.132;8.230;2023-06-05T12:59:52;7.65;;;3.67;;
80400;SDS011;69727;53.132;8.230;2023-06-05T13:02:18;7.10;;;4.00;;
80400;SDS011;69727;53.132;8.230;2023-06-05T13:04:44;7.82;;;4.40;;
80400;SDS011;69727;53.132;8.230;2023-06-05T13:07:10;7.97;;;4.70;;
80400;SDS011;69727;53.132;8.230;2023-06-05T13:09:36;10.52;;;4.30;;
80400;SDS011;69727;53.132;8.230;2023-06-05T13:12:02;7.65;;;3.92;;
80400;SDS011;69727;53.132;8.230;2023-06-05T13:14:29;7.43;;;4.38;;
80400;SDS011;69727;53.132;8.230;2023-06-05T13:16:55;10.50;;;5.03;;
80400;SDS011;69727;53.132;8.230;2023-06-05T13:19:22;8.90;;;4.32;;
80400;SDS011;69727;53.132;8.230;2023-06-05T13:21:47;9.40;;;4.50;;
80400;SDS011;69727;53.132;8.230;2023-06-05T13:24:15;11.02;;;4.47;;
80400;SDS011;69727;53.132;8.230;2023-06-05T13:26:41;8.15;;;4.15;;
80400;SDS011;69727;53.132;8.230;2023-06-05T13:29:08;8.18;;;4.15;;
80400;SDS011;69727;53.132;8.230;2023-06-05T13:31:34;6.85;;;3.28;;
80400;SDS011;69727;53.132;8.230;2023-06-05T13:34:00;7.00;;;2.90;;
80400;SDS011;69727;53.132;8.230;2023-06-05T13:36:26;6.43;;;3.83;;
80400;SDS011;69727;53.132;8.230;2023-06-05T13:38:51;8.05;;;3.50;;
80400;SDS011;69727;53.132;8.230;2023-06-05T13:41:17;7.93;;;3.88;;
80400;SDS011;69727;53.132;8.230;2023-06-05T13:43:43;5.82;;;3.47;;
80400;SDS011;69727;53.132;8.230;2023-06-05T13:46:08;6.88;;;3.33;;
80400;SDS011;69727;53.132;8.230;2023-06-05T13:48:34;8.32;;;3.97;;
80400;SDS011;69727;53.132;8.230;2023-06-05T13:51:00;5.20;;;2.85;;
80400;SDS011;69727;53.132;8.230;2023-06-05T13:53:29;7.97;;;3.60;;
80400;SDS011;69727;53.132;8.230;2023-06-05T13:55:59;6.93;;;3.42;;
80400;SDS011;69727;53.132;8.230;2023-06-05T13:58:26;5.57;;;2.80;;
80400;SDS011;69727;53.132;8.230;2023-06-05T14:00:51;6.50;;;3.53;;
80400;SDS011;69727;53.132;8.230;2023-06-05T14:03:17;8.73;;;3.35;;
80400;SDS011;69727;53.132;8.230;2023-06-05T14:05:42;6.85;;;3.35;;
80400;SDS011;69727;53.132;8.230;2023-06-05T14:08:07;7.17;;;3.67;;
80400;SDS011;69727;53.132;8.230;2023-06-05T14:10:33;9.80;;;3.60;;
80400;SDS011;69727;53.132;8.230;2023-06-05T14:13:00;6.90;;;3.33;;
80400;SDS011;69727;53.132;8.230;2023-06-05T14:15:26;7.18;;;3.47;;
80400;SDS011;69727;53.132;8.230;2023-06-05T14:17:51;7.07;;;3.67;;
80400;SDS011;69727;53.132;8.230;2023-06-05T14:20:17;6.72;;;2.90;;
80400;SDS011;69727;53.132;8.230;2023-06-05T14:22:44;6.25;;;3.05;;
80400;SDS011;69727;53.132;8.230;2023-06-05T14:25:10;5.53;;;3.00;;
80400;SDS011;69727;53.132;8.230;2023-06-05T14:27:35;8.52;;;3.40;;
80400;SDS011;69727;53.132;8.230;2023-06-05T14:30:02;7.57;;;3.55;;
80400;SDS011;69727;53.132;8.230;2023-06-05T14:32:27;6.03;;;2.67;;
80400;SDS011;69727;53.132;8.230;2023-06-05T14:34:53;6.78;;;3.03;;
80400;SDS011;69727;53.132;8.230;2023-06-05T14:37:18;8.47;;;3.90;;
80400;SDS011;69727;53.132;8.230;2023-06-05T14:39:44;7.97;;;3.53;;
80400;SDS011;69727;53.132;8.230;2023-06-05T14:42:09;8.27;;;3.33;;
80400;SDS011;69727;53.132;8.230;2023-06-05T14:44:34;4.90;;;3.00;;
80400;SDS011;69727;53.132;8.230;2023-06-05T14:47:00;5.45;;;2.65;;
80400;SDS011;69727;53.132;8.230;2023-06-05T14:49:25;6.85;;;3.95;;
80400;SDS011;69727;53.132;8.230;2023-06-05T14:51:51;5.63;;;3.22;;
80400;SDS011;69727;53.132;8.230;2023-06-05T14:54:16;7.68;;;3.55;;
80400;SDS011;69727;53.132;8.230;2023-06-05T14:56:48;7.68;;;3.60;;
80400;SDS011;69727;53.132;8.230;2023-06-05T14:59:14;4.82;;;3.00;;
80400;SDS011;69727;53.132;8.230;2023-06-05T15:01:40;6.35;;;3.20;;
80400;SDS011;69727;53.132;8.230;2023-06-05T15:04:05;7.32;;;2.88;;
80400;SDS011;69727;53.132;8.230;2023-06-05T15:06:31;6.57;;;2.88;;
80400;SDS011;69727;53.132;8.230;2023-06-05T15:08:56;8.25;;;2.90;;
80400;SDS011;69727;53.132;8.230;2023-06-05T15:11:25;7.45;;;3.00;;
80400;SDS011;69727;53.132;8.230;2023-06-05T15:13:51;6.25;;;2.90;;
80400;SDS011;69727;53.132;8.230;2023-06-05T15:16:16;7.45;;;3.08;;
80400;SDS011;69727;53.132;8.230;2023-06-05T15:18:41;6.70;;;2.55;;
80400;SDS011;69727;53.132;8.230;2023-06-05T15:21:07;6.83;;;3.03;;
80400;SDS011;69727;53.132;8.230;2023-06-05T15:23:32;4.90;;;2.78;;
80400;SDS011;69727;53.132;8.230;2023-06-05T15:25:58;8.77;;;2.95;;
80400;SDS011;69727;53.132;8.230;2023-06-05T15:28:23;7.38;;;2.78;;
80400;SDS011;69727;53.132;8.230;2023-06-05T15:30:48;8.77;;;3.08;;
80400;SDS011;69727;53.132;8.230;2023-06-05T15:33:14;7.63;;;2.63;;
80400;SDS011;69727;53.132;8.230;2023-06-05T15:35:41;7.68;;;2.53;;